首页
METAR-TAF:

METAR-TAF

机场 :

Waukesha County Airport (Crites Field)

Waukesha, 威斯康辛州, 美国

纬度: 43-02-28N, 经度: 088-14-13W, 海拔: 278米

当前天气观测

该预报发布于24分钟前的20:45 UTC
风速14节,风向西转西北
温度 -6°C
湿度 86%
气压 1007 hPa
能見度: 8.0公里
阴天层高于1400英尺
轻雾

METAR: KUES 142045Z 30014KT 5SM BR OVC014 M06/M08 A2974

时间: 15:09 (21:09 UTC)

预报

该预报发布于1小时和19分钟前的19:50 UTC
预报有效从14日的 20点(UTC)到 15日的 18点(UTC)
风速14节,风向西转西北
能見度: 6.4公里
阴天层高于1200英尺
轻雾
从 14日的 2200点(UTC)
风速11节,风向西转西北
能見度: 10公里
阴天层高于1500英尺
从 15日的 0400点(UTC)
风速9节,风向西转西北
能見度: 10公里
多云层高于2400英尺
从 15日的 0600点(UTC)
风速9节,风向西转西北
能見度: 10公里
多云层高于4000英尺
从 15日的 1700点(UTC)
风速4节,风向多变
能見度: 10公里
天空无云

TAF: KUES 141950Z 1420/1518 29014KT 4SM BR OVC012 FM142200 29011KT P6SM OVC015 FM150400 29009KT P6SM BKN024 FM150600 30009KT P6SM BKN040 FM151700 VRB04KT P6SM SKC

超过4000个机场的气象观测和天气预报(METAR&TAF报告)。

可查询的气象台以黄色和红色小点在地图上表示。

将鼠标移到小点上方,可查看气象台名称。

然后点击查看天气观测和预报。

如需切换地图:点击带黑十字的绿色按钮放大地图;点击带横线的绿色按钮缩小地图;或者点击绿色箭头查看邻近地区的地图。


METAR-TAF: